createdAt,value
2022-11-14T00:00:48.344Z,99.90
2022-11-14T00:03:33.849Z,99.90
2022-11-14T00:06:19.934Z,99.90
2022-11-14T00:09:05.531Z,99.90
2022-11-14T00:11:51.272Z,99.90
2022-11-14T00:14:37.496Z,99.90
2022-11-14T00:17:23.219Z,99.90
2022-11-14T00:20:11.123Z,99.90
2022-11-14T00:22:57.358Z,99.90
2022-11-14T00:25:44.562Z,99.90
2022-11-14T00:28:30.570Z,99.90
2022-11-14T00:31:16.331Z,99.90
2022-11-14T00:34:01.628Z,99.90
2022-11-14T00:36:47.124Z,99.90
2022-11-14T00:39:32.692Z,99.90
2022-11-14T00:42:18.285Z,99.90
2022-11-14T00:45:04.488Z,99.90
2022-11-14T00:47:49.850Z,99.90
2022-11-14T00:50:37.959Z,99.90
2022-11-14T00:53:23.622Z,99.90
2022-11-14T00:56:09.259Z,99.90
2022-11-14T00:58:54.974Z,99.90
2022-11-14T01:01:40.852Z,99.90
2022-11-14T01:04:26.471Z,99.90
2022-11-14T01:07:12.245Z,99.90
2022-11-14T01:09:58.131Z,99.90
2022-11-14T01:12:43.456Z,99.90
2022-11-14T01:15:28.930Z,99.90
2022-11-14T01:18:17.604Z,99.90
2022-11-14T01:21:07.958Z,99.90
2022-11-14T01:23:53.568Z,99.90
2022-11-14T01:26:39.240Z,99.90
2022-11-14T01:29:24.787Z,99.90
2022-11-14T01:32:10.351Z,99.90
2022-11-14T01:34:56.128Z,99.90
2022-11-14T01:37:41.584Z,99.90
2022-11-14T01:40:27.588Z,99.90
2022-11-14T01:43:18.783Z,99.90
2022-11-14T01:46:33.826Z,99.90
2022-11-14T01:49:22.409Z,99.90
2022-11-14T01:52:20.370Z,99.90
2022-11-14T01:55:08.704Z,99.90
2022-11-14T01:57:54.365Z,99.90
2022-11-14T02:00:40.241Z,99.90
2022-11-14T02:03:26.203Z,99.90
2022-11-14T02:06:15.431Z,99.90
2022-11-14T02:09:04.743Z,99.90
2022-11-14T02:11:52.076Z,99.90
2022-11-14T02:14:38.355Z,99.90
2022-11-14T02:17:30.083Z,99.90
2022-11-14T02:20:21.550Z,99.90
2022-11-14T02:23:06.919Z,99.90
2022-11-14T02:25:52.481Z,99.90
2022-11-14T02:28:38.235Z,99.90
2022-11-14T02:31:23.696Z,99.90
2022-11-14T02:34:09.044Z,99.90
2022-11-14T02:36:54.456Z,99.90
2022-11-14T02:39:40.875Z,99.90
2022-11-14T02:42:26.667Z,99.90
2022-11-14T02:45:13.220Z,99.90
2022-11-14T02:47:58.514Z,99.90
2022-11-14T02:50:44.233Z,99.90
2022-11-14T02:53:29.772Z,99.90
2022-11-14T02:56:15.390Z,99.90
2022-11-14T02:59:00.783Z,99.90
2022-11-14T03:01:46.307Z,99.90
2022-11-14T03:04:32.123Z,99.90
2022-11-14T03:07:18.754Z,99.90
2022-11-14T03:10:04.730Z,99.90
2022-11-14T03:12:57.300Z,99.90
2022-11-14T03:15:42.625Z,99.90
2022-11-14T03:18:28.278Z,99.90
2022-11-14T03:21:17.814Z,99.90
2022-11-14T03:24:03.285Z,99.90
2022-11-14T03:26:49.029Z,99.90
2022-11-14T03:29:34.741Z,99.90
2022-11-14T03:32:20.273Z,99.90
2022-11-14T03:35:06.548Z,99.90
2022-11-14T03:37:56.154Z,99.90
2022-11-14T03:40:42.789Z,99.90
2022-11-14T03:43:32.696Z,99.90
2022-11-14T03:46:18.155Z,99.90
2022-11-14T03:49:06.967Z,99.90
2022-11-14T03:51:52.558Z,99.90
2022-11-14T03:54:38.412Z,99.90
2022-11-14T03:57:24.234Z,99.90
2022-11-14T04:00:10.435Z,99.90
2022-11-14T04:02:57.046Z,99.90
2022-11-14T04:05:45.829Z,99.90
2022-11-14T04:08:32.808Z,99.90
2022-11-14T04:11:18.986Z,99.90
2022-11-14T04:14:04.955Z,99.90
2022-11-14T04:16:50.255Z,99.90
2022-11-14T04:19:36.159Z,99.90
2022-11-14T04:22:21.886Z,99.90
2022-11-14T04:25:08.424Z,99.90
2022-11-14T04:27:54.175Z,99.90
2022-11-14T04:30:39.695Z,99.90
2022-11-14T04:33:25.315Z,99.90
2022-11-14T04:36:10.827Z,99.90
2022-11-14T04:38:56.384Z,99.90
2022-11-14T04:41:41.838Z,99.90
2022-11-14T04:44:27.045Z,99.90
2022-11-14T04:47:12.799Z,99.90
2022-11-14T04:49:58.082Z,99.90
2022-11-14T04:52:43.566Z,99.90
2022-11-14T04:55:28.934Z,99.90
2022-11-14T04:58:14.433Z,99.90
2022-11-14T05:01:00.077Z,99.90
2022-11-14T05:03:45.913Z,99.90
2022-11-14T05:06:31.616Z,99.90
2022-11-14T05:09:17.056Z,99.90
2022-11-14T05:12:04.008Z,99.90
2022-11-14T05:14:49.443Z,99.90
2022-11-14T05:17:35.121Z,99.90
2022-11-14T05:20:20.430Z,99.90
2022-11-14T05:23:06.118Z,99.90
2022-11-14T05:26:05.448Z,99.90
2022-11-14T05:28:51.111Z,99.90
2022-11-14T05:31:36.533Z,99.90
2022-11-14T05:34:21.869Z,99.90
2022-11-14T05:37:08.625Z,99.90
2022-11-14T05:39:53.893Z,99.90
2022-11-14T05:42:39.202Z,99.90
2022-11-14T05:45:24.888Z,99.90
2022-11-14T05:48:10.172Z,99.90
2022-11-14T05:51:01.881Z,99.90
2022-11-14T05:53:47.897Z,99.90
2022-11-14T05:56:33.755Z,99.90
2022-11-14T05:59:19.397Z,99.90
2022-11-14T06:02:05.389Z,99.90
2022-11-14T06:04:51.179Z,99.90
2022-11-14T06:07:37.149Z,99.90
2022-11-14T06:10:23.506Z,99.90
2022-11-14T06:13:10.665Z,99.90
2022-11-14T06:16:02.309Z,99.90
2022-11-14T06:18:48.725Z,99.90
2022-11-14T06:21:37.571Z,99.90
2022-11-14T06:24:23.056Z,99.90
2022-11-14T06:27:09.988Z,99.90
2022-11-14T06:29:55.550Z,99.90
2022-11-14T06:32:41.167Z,99.90
2022-11-14T06:35:27.392Z,99.90
2022-11-14T06:38:13.049Z,99.90
2022-11-14T06:41:06.650Z,99.90
2022-11-14T06:43:55.592Z,99.90
2022-11-14T06:46:41.357Z,99.90
2022-11-14T06:49:27.827Z,99.90
2022-11-14T06:52:13.451Z,99.90
2022-11-14T06:54:59.199Z,99.90
2022-11-14T06:57:44.819Z,99.90
2022-11-14T07:00:32.968Z,99.90
2022-11-14T07:03:21.250Z,99.90
2022-11-14T07:06:07.962Z,99.90
2022-11-14T07:08:54.595Z,99.90
2022-11-14T07:11:40.576Z,99.90
2022-11-14T07:14:25.854Z,99.90
2022-11-14T07:17:11.143Z,99.90
2022-11-14T07:19:56.935Z,99.90
2022-11-14T07:22:42.631Z,99.90
2022-11-14T07:25:28.116Z,99.90
2022-11-14T07:28:13.697Z,99.90
2022-11-14T07:30:58.937Z,99.90
2022-11-14T07:33:45.278Z,99.90
2022-11-14T07:36:30.837Z,99.90
2022-11-14T07:39:16.487Z,99.90
2022-11-14T07:42:01.826Z,99.90
2022-11-14T07:44:47.330Z,99.90
2022-11-14T07:47:33.307Z,99.90
2022-11-14T07:50:20.598Z,99.90
2022-11-14T07:53:06.504Z,99.90
2022-11-14T07:55:52.255Z,99.90
2022-11-14T07:58:39.253Z,99.90
2022-11-14T08:01:24.955Z,99.90
2022-11-14T08:04:10.550Z,99.90
2022-11-14T08:06:55.961Z,99.90
2022-11-14T08:09:42.081Z,99.90
2022-11-14T08:12:28.040Z,99.90
2022-11-14T08:15:14.630Z,99.90
2022-11-14T08:18:01.678Z,99.90
2022-11-14T08:20:47.804Z,99.90
2022-11-14T08:23:33.618Z,99.90
2022-11-14T08:26:18.970Z,99.90
2022-11-14T08:29:04.887Z,99.90
2022-11-14T08:31:51.884Z,99.90
2022-11-14T08:34:39.063Z,99.90
2022-11-14T08:37:24.744Z,99.90
2022-11-14T08:40:11.399Z,99.90
2022-11-14T08:43:02.066Z,99.90
2022-11-14T08:45:48.874Z,99.90
2022-11-14T08:48:34.827Z,99.90
2022-11-14T08:51:20.596Z,99.90
2022-11-14T08:54:06.942Z,99.90
2022-11-14T08:56:52.679Z,99.90
2022-11-14T08:59:38.004Z,99.90
2022-11-14T09:02:24.238Z,99.90
2022-11-14T09:05:10.646Z,99.90
2022-11-14T09:07:56.122Z,99.90
2022-11-14T09:10:41.631Z,99.90
2022-11-14T09:13:27.837Z,99.90
2022-11-14T09:16:13.698Z,99.90
2022-11-14T09:19:00.112Z,99.90
2022-11-14T09:21:45.946Z,99.90
2022-11-14T09:24:31.243Z,99.90
2022-11-14T09:27:17.214Z,99.90
2022-11-14T09:30:03.613Z,99.90
2022-11-14T09:32:50.201Z,99.90
2022-11-14T09:35:37.850Z,99.90
2022-11-14T09:38:23.440Z,99.90
2022-11-14T09:41:08.976Z,99.90
2022-11-14T09:44:09.445Z,99.90
2022-11-14T09:47:20.439Z,99.90
2022-11-14T09:50:30.777Z,99.90
2022-11-14T09:53:40.015Z,99.90
2022-11-14T09:56:27.091Z,99.90
2022-11-14T09:59:13.485Z,99.90
2022-11-14T10:02:05.988Z,99.90
2022-11-14T10:05:22.531Z,99.90
2022-11-14T10:08:13.806Z,99.90
2022-11-14T10:11:24.085Z,99.90
2022-11-14T10:14:30.832Z,99.90
2022-11-14T10:17:19.336Z,99.90
2022-11-14T10:20:13.993Z,99.90
2022-11-14T10:23:18.870Z,99.90
2022-11-14T10:26:13.129Z,99.90
2022-11-14T10:29:26.383Z,99.90
2022-11-14T10:33:06.101Z,99.90
2022-11-14T10:36:11.724Z,99.90
2022-11-14T10:39:29.592Z,99.90
2022-11-14T10:42:35.755Z,99.30
2022-11-14T10:45:35.881Z,97.90
2022-11-14T10:48:49.927Z,98.90
2022-11-14T10:51:46.019Z,96.60
2022-11-14T10:55:00.193Z,95.50
2022-11-14T10:57:46.570Z,96.30
2022-11-14T11:00:32.331Z,95.70
2022-11-14T11:03:17.979Z,95.80
2022-11-14T11:06:03.744Z,93.10
2022-11-14T11:09:07.667Z,92.10
2022-11-14T11:12:02.586Z,94.30
2022-11-14T11:14:50.419Z,95.80
2022-11-14T11:17:41.738Z,95.40
2022-11-14T11:20:41.224Z,91.60
2022-11-14T11:23:28.201Z,94.90
2022-11-14T11:26:25.407Z,91.00
2022-11-14T11:29:11.201Z,92.30
2022-11-14T11:32:02.530Z,89.50
2022-11-14T11:34:51.632Z,90.80
2022-11-14T11:37:40.418Z,90.70
2022-11-14T11:40:28.652Z,87.50
2022-11-14T11:43:37.841Z,88.60
2022-11-14T11:46:29.551Z,86.60
2022-11-14T11:49:33.300Z,87.60
2022-11-14T11:52:49.783Z,82.50
2022-11-14T11:55:43.766Z,85.10
2022-11-14T11:59:17.873Z,85.20
2022-11-14T12:02:17.617Z,81.50
2022-11-14T12:05:03.592Z,82.70
2022-11-14T12:08:21.168Z,84.00
2022-11-14T12:11:15.053Z,83.10
2022-11-14T12:14:12.737Z,84.40
2022-11-14T12:17:13.381Z,84.00
2022-11-14T12:20:01.497Z,83.50
2022-11-14T12:22:58.685Z,84.00
2022-11-14T12:25:47.801Z,84.70
2022-11-14T12:28:39.339Z,84.30
2022-11-14T12:31:28.279Z,83.90
2022-11-14T12:34:39.485Z,84.00
2022-11-14T12:37:35.662Z,81.80
2022-11-14T12:40:31.668Z,83.40
2022-11-14T12:43:40.571Z,81.50
2022-11-14T12:46:26.035Z,85.10
2022-11-14T12:49:38.041Z,83.20
2022-11-14T12:52:45.052Z,82.80
2022-11-14T12:55:30.816Z,82.90
2022-11-14T12:58:31.447Z,84.10
2022-11-14T13:01:50.509Z,82.50
2022-11-14T13:05:03.056Z,86.20
2022-11-14T13:08:08.074Z,85.10
2022-11-14T13:10:53.302Z,82.10
2022-11-14T13:14:19.843Z,86.50
2022-11-14T13:17:36.113Z,86.00
2022-11-14T13:20:52.710Z,85.00
2022-11-14T13:23:41.104Z,85.00
2022-11-14T13:26:35.406Z,86.30
2022-11-14T13:29:39.138Z,84.70
2022-11-14T13:32:43.100Z,85.00
2022-11-14T13:35:45.095Z,84.20
2022-11-14T13:38:45.232Z,85.10
2022-11-14T13:41:47.360Z,85.40
2022-11-14T13:44:51.695Z,85.70
2022-11-14T13:48:11.557Z,86.40
2022-11-14T13:51:21.791Z,85.80
2022-11-14T13:54:17.841Z,86.80
2022-11-14T13:57:24.760Z,86.60
2022-11-14T14:00:19.543Z,89.70
2022-11-14T14:03:20.772Z,88.60
2022-11-14T14:06:22.306Z,88.10
2022-11-14T14:09:10.980Z,86.20
2022-11-14T14:12:17.785Z,87.20
2022-11-14T14:15:12.095Z,85.70
2022-11-14T14:18:25.398Z,86.50
2022-11-14T14:21:48.911Z,86.30
2022-11-14T14:24:58.389Z,87.70
2022-11-14T14:28:19.608Z,89.50
2022-11-14T14:31:08.324Z,88.20
2022-11-14T14:33:54.006Z,84.70
2022-11-14T14:36:53.648Z,85.00
2022-11-14T14:39:39.017Z,83.80
2022-11-14T14:42:29.609Z,84.80
2022-11-14T14:45:22.497Z,85.80
2022-11-14T14:48:15.103Z,87.00
2022-11-14T14:51:02.968Z,88.30
2022-11-14T14:53:53.955Z,89.60
2022-11-14T14:57:00.480Z,89.70
2022-11-14T14:59:46.572Z,90.80
2022-11-14T15:02:32.839Z,91.70
2022-11-14T15:05:27.600Z,91.90
2022-11-14T15:08:15.655Z,92.30
2022-11-14T15:11:02.267Z,93.00
2022-11-14T15:13:52.874Z,94.20
2022-11-14T15:16:38.954Z,95.00
2022-11-14T15:19:27.659Z,95.70
2022-11-14T15:22:16.560Z,95.90
2022-11-14T15:25:13.710Z,96.60
2022-11-14T15:28:00.369Z,96.90
2022-11-14T15:31:03.784Z,97.50
2022-11-14T15:34:05.345Z,97.50
2022-11-14T15:37:16.688Z,98.30
2022-11-14T15:40:20.382Z,98.80
2022-11-14T15:43:42.930Z,99.00
2022-11-14T15:46:34.315Z,99.60
2022-11-14T15:49:24.037Z,99.90
2022-11-14T15:52:33.472Z,99.90
2022-11-14T15:55:21.601Z,99.90
2022-11-14T15:58:27.740Z,99.90
2022-11-14T16:01:20.171Z,99.90
2022-11-14T16:04:06.081Z,99.90
2022-11-14T16:06:52.006Z,99.90
2022-11-14T16:09:40.512Z,99.90
2022-11-14T16:12:27.332Z,99.90
2022-11-14T16:15:13.184Z,99.90
2022-11-14T16:17:58.832Z,99.90
2022-11-14T16:20:44.344Z,99.90
2022-11-14T16:23:30.139Z,99.90
2022-11-14T16:26:16.366Z,99.90
2022-11-14T16:29:02.118Z,99.90
2022-11-14T16:31:48.551Z,99.90
2022-11-14T16:34:33.954Z,99.90
2022-11-14T16:37:19.549Z,99.90
2022-11-14T16:40:05.841Z,99.90
2022-11-14T16:42:53.682Z,99.90
2022-11-14T16:45:42.102Z,99.90
2022-11-14T16:48:27.504Z,99.90
2022-11-14T16:51:40.793Z,99.90
2022-11-14T16:54:20.460Z,99.90
2022-11-14T16:57:06.241Z,99.90
2022-11-14T16:59:51.894Z,99.90
2022-11-14T17:02:37.535Z,99.90
2022-11-14T17:05:23.161Z,99.90
2022-11-14T17:08:08.786Z,99.90
2022-11-14T17:10:54.792Z,99.90
2022-11-14T17:13:40.380Z,99.90
2022-11-14T17:16:26.130Z,99.90
2022-11-14T17:19:14.091Z,99.90
2022-11-14T17:21:59.676Z,99.90
2022-11-14T17:24:47.132Z,99.90
2022-11-14T17:27:33.032Z,99.90
2022-11-14T17:30:19.335Z,99.90
2022-11-14T17:33:04.665Z,99.90
2022-11-14T17:35:50.252Z,99.90
2022-11-14T17:38:37.533Z,99.90
2022-11-14T17:41:24.019Z,99.90
2022-11-14T17:44:09.946Z,99.90
2022-11-14T17:46:55.237Z,99.90
2022-11-14T17:49:40.746Z,99.90
2022-11-14T17:52:27.207Z,99.90
2022-11-14T17:55:13.210Z,99.90
2022-11-14T17:57:58.819Z,99.90
2022-11-14T18:00:44.758Z,99.90
2022-11-14T18:03:30.665Z,99.90
2022-11-14T18:06:20.770Z,99.90
2022-11-14T18:09:08.136Z,99.90
2022-11-14T18:11:55.661Z,99.90
2022-11-14T18:14:47.353Z,99.90
2022-11-14T18:17:32.965Z,99.90
2022-11-14T18:20:18.345Z,99.90
2022-11-14T18:23:03.992Z,99.90
2022-11-14T18:25:49.371Z,99.90
2022-11-14T18:28:35.114Z,99.90
2022-11-14T18:31:21.148Z,99.90
2022-11-14T18:34:06.793Z,99.90
2022-11-14T18:36:52.078Z,99.90
2022-11-14T18:39:37.584Z,99.90
2022-11-14T18:42:23.669Z,99.90
2022-11-14T18:45:09.410Z,99.90
2022-11-14T18:47:57.802Z,99.90
2022-11-14T18:50:43.979Z,99.90
2022-11-14T18:53:36.485Z,99.90
2022-11-14T18:56:23.986Z,99.90
2022-11-14T18:59:09.687Z,99.90
2022-11-14T19:01:57.913Z,99.90
2022-11-14T19:04:43.314Z,99.90
2022-11-14T19:07:30.604Z,99.90
2022-11-14T19:10:16.396Z,99.90
2022-11-14T19:13:02.145Z,99.90
2022-11-14T19:15:47.780Z,99.90
2022-11-14T19:18:33.510Z,99.90
2022-11-14T19:21:19.062Z,99.90
2022-11-14T19:24:05.421Z,99.90
2022-11-14T19:26:52.485Z,99.90
2022-11-14T19:29:37.912Z,99.90
2022-11-14T19:32:23.785Z,99.90
2022-11-14T19:35:09.558Z,99.90
2022-11-14T19:37:56.723Z,99.90
2022-11-14T19:40:42.864Z,99.90
2022-11-14T19:43:29.206Z,99.90
2022-11-14T19:46:18.180Z,99.90
2022-11-14T19:49:04.248Z,99.90
2022-11-14T19:51:50.356Z,99.90
2022-11-14T19:54:38.370Z,99.90
2022-11-14T19:57:25.308Z,99.90
2022-11-14T20:00:11.334Z,99.90
2022-11-14T20:02:57.025Z,99.90
2022-11-14T20:05:44.371Z,99.90
2022-11-14T20:08:32.424Z,99.90
2022-11-14T20:11:19.502Z,99.90
2022-11-14T20:14:06.875Z,99.90
2022-11-14T20:16:53.977Z,99.90
2022-11-14T20:19:39.457Z,99.90
2022-11-14T20:22:25.149Z,99.90
2022-11-14T20:25:15.618Z,99.90
2022-11-14T20:28:01.719Z,99.90
2022-11-14T20:30:49.753Z,99.90
2022-11-14T20:33:41.400Z,99.90
2022-11-14T20:36:38.992Z,99.90
2022-11-14T20:39:29.619Z,99.90
2022-11-14T20:42:18.850Z,99.90
2022-11-14T20:45:05.939Z,99.90
2022-11-14T20:47:51.692Z,99.90
2022-11-14T20:50:37.660Z,99.90
2022-11-14T20:53:23.342Z,99.90
2022-11-14T20:56:09.901Z,99.90
2022-11-14T20:58:55.672Z,99.90
2022-11-14T21:01:44.184Z,99.90
2022-11-14T21:04:32.822Z,99.90
2022-11-14T21:07:19.233Z,99.90
2022-11-14T21:10:23.873Z,99.90
2022-11-14T21:13:28.470Z,99.90
2022-11-14T21:16:22.039Z,99.90
2022-11-14T21:19:08.393Z,99.90
2022-11-14T21:21:53.910Z,99.90
2022-11-14T21:24:39.992Z,99.90
2022-11-14T21:27:25.894Z,99.90
2022-11-14T21:30:13.612Z,99.90
2022-11-14T21:32:59.486Z,99.90
2022-11-14T21:35:45.146Z,99.90
2022-11-14T21:38:33.073Z,99.90
2022-11-14T21:41:21.673Z,99.90
2022-11-14T21:44:10.081Z,99.90
2022-11-14T21:46:55.574Z,99.90
2022-11-14T21:49:41.429Z,99.90
2022-11-14T21:52:27.216Z,99.90
2022-11-14T21:55:13.014Z,99.90
2022-11-14T21:57:58.786Z,99.90
2022-11-14T22:00:44.176Z,99.90
2022-11-14T22:03:48.253Z,99.90
2022-11-14T22:06:33.731Z,99.90
2022-11-14T22:09:19.350Z,99.90
2022-11-14T22:12:05.916Z,99.90
2022-11-14T22:14:51.556Z,99.90
2022-11-14T22:17:37.029Z,99.90
2022-11-14T22:20:23.427Z,99.90
2022-11-14T22:23:08.907Z,99.90
2022-11-14T22:25:59.625Z,99.90
2022-11-14T22:28:45.536Z,99.90
2022-11-14T22:31:32.696Z,99.90
2022-11-14T22:34:18.154Z,99.90
2022-11-14T22:37:03.679Z,99.90
2022-11-14T22:39:49.640Z,99.90
2022-11-14T22:42:34.996Z,99.90
2022-11-14T22:45:22.219Z,99.90
2022-11-14T22:48:07.877Z,99.90
2022-11-14T22:51:22.723Z,99.90
2022-11-14T22:54:08.287Z,99.90
2022-11-14T22:56:55.106Z,99.90
2022-11-14T22:59:41.230Z,99.90
2022-11-14T23:02:26.703Z,99.90
2022-11-14T23:05:14.791Z,99.90
2022-11-14T23:08:00.768Z,99.90
2022-11-14T23:10:47.837Z,99.90
2022-11-14T23:13:38.643Z,99.90
2022-11-14T23:16:34.452Z,99.90
2022-11-14T23:19:20.148Z,99.90
2022-11-14T23:22:05.834Z,99.90
2022-11-14T23:24:51.488Z,99.90
2022-11-14T23:27:37.371Z,99.90
2022-11-14T23:30:29.228Z,99.90
2022-11-14T23:33:14.741Z,99.90
2022-11-14T23:36:00.612Z,99.90
2022-11-14T23:38:46.516Z,99.90
2022-11-14T23:41:32.265Z,99.90
2022-11-14T23:44:17.623Z,99.90
2022-11-14T23:47:03.523Z,99.90
2022-11-14T23:49:51.189Z,99.90
2022-11-14T23:52:38.404Z,99.90
2022-11-14T23:55:23.949Z,99.90
2022-11-14T23:58:09.372Z,99.90
